Johnston, South Carolina
Current Conditions -  °F | °C
As of 6:15 PM on Tuesday 21 Oct 2014 (Local Time) from KAIK Reporting Station
Clear Clear  
Wind Chill: 23°   Ceiling: Unl
Heat Index: 23°   Visibility: 10mi
Dew Point: 12°   Wind: 12mph
Humidity: 50%   Direction: 250°WSW
Pressure: 29.91"   Gusts: NA
Location:  33.83°N, 81.8°W
Report Text: KAIK 212215Z AUTO 25010KT 10SM CLR 23/12 A2991 RMK AO2 PNO
Loading
Personal Weather Stations






























Interactive Weather Map
Tropical Storm Tracking
New forecast layout! Learn more

10-Day Weather Forecast

Advertisements
Track Severe Weather on mobile